Time;durP1;ratioP1;P1;durP2;ratioP2;P2;SDS_P1;SDS_P2;PMS_P1;PMS_P2;Temp;Humidity;BMP_temperature;BMP_pressure;BME280_temperature;BME280_humidity;BME280_pressure;Samples;Min_cycle;Max_cycle;Signal;HPM_P1;HPM_P2
2022/04/02 00:00:24;;;;;;;;;6.00;6.00;;;;;7.28;47.71;101028.41;4994909;28;45324;-87
2022/04/02 00:02:50;;;;;;;;;9.00;7.00;;;;;7.30;48.03;101038.06;4992252;28;57276;-86
2022/04/02 00:05:15;;;;;;;;;5.00;5.00;;;;;7.55;48.09;101087.84;4994129;28;45550;-87
2022/04/02 00:07:40;;;;;;;;;5.33;4.67;;;;;7.48;47.97;101079.16;4994153;28;45325;-87
2022/04/02 00:10:07;;;;;;;;;5.67;5.67;;;;;7.66;47.94;101120.28;4993204;28;46548;-86
2022/04/02 00:12:32;;;;;;;;;6.67;6.67;;;;;7.23;47.94;101054.19;4994145;28;46049;-86
2022/04/02 00:14:58;;;;;;;;;7.00;5.00;;;;;7.62;47.78;101105.34;5009366;28;45531;-86
2022/04/02 00:17:23;;;;;;;;;6.00;5.00;;;;;7.11;47.44;101036.81;5009761;28;45235;-86
2022/04/02 00:19:49;;;;;;;;;7.33;6.00;;;;;7.84;48.37;101164.03;4994224;28;45609;-87
2022/04/02 00:22:15;;;;;;;;;5.67;5.67;;;;;7.49;46.36;101086.22;4992634;28;47140;-87
2022/04/02 00:24:40;;;;;;;;;5.33;5.00;;;;;7.55;47.34;101104.63;5009066;28;45503;-87
2022/04/02 00:27:05;;;;;;;;;9.67;5.00;;;;;7.34;46.28;101083.94;5009192;28;45553;-87
2022/04/02 00:29:32;;;;;;;;;6.00;4.50;;;;;7.23;46.42;101072.75;4995252;28;45503;-87
2022/04/02 00:31:57;;;;;;;;;3.33;3.33;;;;;7.94;46.40;101178.81;5012144;28;48094;-87
2022/04/02 00:34:22;;;;;;;;;5.00;5.00;;;;;7.40;45.80;101089.97;4997079;28;45475;-87
2022/04/02 00:36:48;;;;;;;;;5.33;4.00;;;;;7.89;46.42;101174.53;4996957;28;45494;-87
2022/04/02 00:39:13;;;;;;;;;4.00;3.00;;;;;7.61;46.26;101133.66;4995987;28;45545;-87
2022/04/02 00:41:39;;;;;;;;;5.00;5.00;;;;;7.42;45.45;101099.66;4995507;28;48248;-87
2022/04/02 00:44:17;;;;;;;;;5.00;5.00;;;;;7.87;45.60;101177.22;4995501;27;45685;-88
2022/04/02 00:46:44;;;;;;;;;5.00;4.00;;;;;7.40;46.00;101103.25;4997007;27;45251;-86
2022/04/02 00:49:12;;;;;;;;;3.00;3.00;;;;;7.88;46.00;101176.31;4997331;27;45297;-86
2022/04/02 00:51:42;;;;;;;;;5.00;4.33;;;;;7.04;44.89;101037.88;4996779;27;46184;-87
2022/04/02 00:54:18;;;;;;;;;4.00;4.00;;;;;7.86;45.66;101169.31;4996456;28;45443;-87
2022/04/02 00:56:45;;;;;;;;;3.00;3.00;;;;;7.38;45.41;101097.09;4994697;27;45397;-86
2022/04/02 00:59:12;;;;;;;;;5.33;4.00;;;;;7.85;45.34;101165.78;4995839;28;45583;-87
2022/04/02 01:01:38;;;;;;;;;3.00;3.00;;;;;7.86;45.27;101171.94;4996693;28;45534;-86
2022/04/02 01:04:04;;;;;;;;;6.00;3.00;;;;;7.53;44.61;101119.69;4996421;28;45331;-87
2022/04/02 01:06:31;;;;;;;;;5.00;3.67;;;;;6.79;44.78;100989.88;4995661;27;45377;-87
2022/04/02 01:08:57;;;;;;;;;4.33;3.00;;;;;7.82;44.93;101181.78;4996767;27;45453;-87
2022/04/02 01:11:23;;;;;;;;;4.67;4.00;;;;;7.27;44.79;101095.63;4995084;27;47112;-87
2022/04/02 01:13:48;;;;;;;;;5.00;3.67;;;;;7.21;44.76;101083.41;4995129;27;45439;-87
2022/04/02 01:16:14;;;;;;;;;3.00;3.00;;;;;7.52;44.42;101136.53;4996846;27;45487;-86
2022/04/02 01:18:39;;;;;;;;;4.67;3.00;;;;;7.30;44.15;101095.53;4995281;27;45482;-87
2022/04/02 01:21:04;;;;;;;;;4.33;3.00;;;;;6.90;44.28;101032.88;4994892;27;47829;-87
2022/04/02 01:23:30;;;;;;;;;3.33;3.33;;;;;6.97;44.08;101048.59;4996560;28;45400;-87
2022/04/02 01:25:59;;;;;;;;;4.00;3.33;;;;;7.19;44.48;101090.50;4995162;28;45548;-87
2022/04/02 01:28:33;;;;;;;;;4.00;4.00;;;;;7.44;44.20;101130.53;4995685;28;45283;-87
2022/04/02 01:30:59;;;;;;;;;3.00;3.00;;;;;7.30;44.27;101114.97;4994752;28;47324;-87
2022/04/02 01:33:25;;;;;;;;;3.67;3.00;;;;;7.17;44.19;101089.69;4995068;28;45377;-86
2022/04/02 01:35:58;;;;;;;;;4.00;4.00;;;;;7.23;45.46;101115.16;5011375;28;45435;-86
2022/04/02 01:38:23;;;;;;;;;5.00;3.00;;;;;7.26;44.24;101112.41;5012002;28;45589;-86
2022/04/02 01:40:48;;;;;;;;;3.00;1.33;;;;;7.34;44.47;101132.53;4994399;28;47080;-87
2022/04/02 01:43:14;;;;;;;;;4.33;3.67;;;;;6.94;44.51;101083.13;5011092;28;45474;-86
2022/04/02 01:45:39;;;;;;;;;4.00;3.00;;;;;7.35;44.81;101144.91;4995198;28;45351;-86
2022/04/02 01:48:05;;;;;;;;;2.67;2.67;;;;;7.35;44.47;101155.53;4996453;28;45463;-86
2022/04/02 01:50:30;;;;;;;;;4.67;4.67;;;;;7.27;44.27;101135.38;4996138;28;46391;-86
2022/04/02 01:52:55;;;;;;;;;4.33;4.00;;;;;6.94;44.54;101099.03;4995973;28;45343;-86
2022/04/02 01:55:21;;;;;;;;;4.00;3.00;;;;;7.14;44.47;101130.38;4995105;28;45583;-86
2022/04/02 01:57:47;;;;;;;;;3.33;2.00;;;;;7.21;44.49;101144.38;4995255;28;45638;-86
2022/04/02 02:00:13;;;;;;;;;3.67;3.67;;;;;7.29;44.27;101152.13;4996178;28;46224;-86
2022/04/02 02:02:39;;;;;;;;;5.00;3.67;;;;;6.87;44.21;101088.63;5011124;28;45459;-86
2022/04/02 02:05:05;;;;;;;;;2.33;2.33;;;;;6.92;44.24;101106.13;4995625;28;45475;-85
2022/04/02 02:07:30;;;;;;;;;3.67;2.67;;;;;6.88;44.24;101108.88;4995084;27;45524;-86
2022/04/02 02:09:57;;;;;;;;;3.00;3.00;;;;;7.09;43.66;101142.84;4995713;28;46420;-87
2022/04/02 02:12:23;;;;;;;;;3.00;3.00;;;;;7.40;44.42;101198.72;4995965;28;45482;-86
2022/04/02 02:14:48;;;;;;;;;3.33;3.00;;;;;7.03;44.77;101142.13;4994712;28;45437;-86
2022/04/02 02:17:15;;;;;;;;;4.00;4.00;;;;;7.09;44.34;101152.59;4996239;27;45626;-86
2022/04/02 02:19:41;;;;;;;;;3.00;3.00;;;;;6.85;44.18;101117.78;5011160;27;47068;-86
2022/04/02 02:22:06;;;;;;;;;2.33;2.33;;;;;7.00;44.05;101166.03;4995424;27;45497;-86
2022/04/02 02:24:32;;;;;;;;;7.67;4.00;;;;;7.29;44.42;101198.06;4994698;27;45337;-86
2022/04/02 02:26:58;;;;;;;;;5.33;5.00;;;;;6.65;44.09;101110.28;5011272;27;45576;-86
2022/04/02 02:29:23;;;;;;;;;4.00;4.00;;;;;6.61;44.07;101099.78;4995317;28;46342;-86
2022/04/02 02:31:48;;;;;;;;;4.00;4.00;;;;;6.91;44.21;101168.00;5010399;28;45273;-86
2022/04/02 02:36:58;;;;;;;;;5.00;5.00;;;;;7.02;44.75;101190.72;4995940;28;45229;-86
2022/04/02 02:39:23;;;;;;;;;4.67;2.00;;;;;6.86;44.25;101169.88;4993535;28;48012;-86
2022/04/02 02:41:49;;;;;;;;;5.67;3.00;;;;;6.64;44.85;101132.38;4993897;28;47051;-86
2022/04/02 02:44:14;;;;;;;;;3.67;3.67;;;;;6.51;44.39;101115.88;4995372;28;45396;-86
2022/04/02 02:46:40;;;;;;;;;4.67;3.33;;;;;7.01;44.70;101195.16;4995868;28;45209;-86
2022/04/02 02:49:05;;;;;;;;;5.00;3.00;;;;;6.41;44.72;101116.09;5010329;28;48374;-85
2022/04/02 02:51:30;;;;;;;;;3.00;3.00;;;;;6.55;45.03;101137.84;5010536;28;46909;-86
2022/04/02 02:53:56;;;;;;;;;2.00;2.00;;;;;6.70;44.74;101157.88;4993136;28;45481;-86
2022/04/02 02:56:22;;;;;;;;;4.00;4.00;;;;;6.62;44.64;101150.06;4984953;28;45462;-85
2022/04/02 02:58:47;;;;;;;;;5.00;4.67;;;;;6.61;44.67;101144.81;4975699;28;45414;-85
2022/04/02 03:01:12;;;;;;;;;3.67;3.67;;;;;6.97;44.87;101231.44;4991799;28;45428;-85
2022/04/02 03:03:38;;;;;;;;;5.00;4.33;;;;;6.67;44.88;101171.16;4995490;28;45489;-86
2022/04/02 03:06:04;;;;;;;;;7.00;6.67;;;;;6.81;44.61;101200.88;4995337;28;45557;-86
2022/04/02 03:08:29;;;;;;;;;6.00;4.00;;;;;6.78;44.43;101200.94;4993715;28;46343;-85
2022/04/02 03:10:58;;;;;;;;;5.00;5.00;;;;;6.40;44.70;101140.84;4994722;27;45293;-85
2022/04/02 03:13:23;;;;;;;;;5.67;5.67;;;;;6.76;44.79;101219.50;4993945;27;45461;-85
2022/04/02 03:15:49;;;;;;;;;4.00;4.00;;;;;6.73;44.40;101210.78;4995352;27;45316;-86
2022/04/02 03:18:14;;;;;;;;;3.00;3.00;;;;;6.20;44.85;101120.03;4994725;27;45329;-86
2022/04/02 03:20:40;;;;;;;;;3.00;3.00;;;;;6.62;44.79;101191.56;4994417;28;45317;-86
2022/04/02 03:23:06;;;;;;;;;5.00;3.00;;;;;6.02;44.77;101100.97;4993423;28;45476;-85
2022/04/02 03:25:32;;;;;;;;;3.00;3.00;;;;;6.75;45.09;101232.81;4993945;28;45597;-86
2022/04/02 03:27:58;;;;;;;;;7.00;5.33;;;;;6.87;44.90;101247.59;5009835;28;48123;-86
2022/04/02 03:30:25;;;;;;;;;6.33;4.00;;;;;6.45;45.36;101181.31;4994640;28;45443;-86
2022/04/02 03:32:52;;;;;;;;;6.00;4.33;;;;;6.86;45.22;101237.88;4995084;28;45538;-86
2022/04/02 03:35:18;;;;;;;;;7.00;4.67;;;;;5.91;45.14;101090.56;4994890;28;45552;-85
2022/04/02 03:37:45;;;;;;;;;4.00;4.00;;;;;6.60;44.97;101219.84;4994598;28;46392;-86
2022/04/02 03:40:16;;;;;;;;;4.00;3.33;;;;;6.35;45.43;101164.75;4994122;28;45506;-86
2022/04/02 03:42:44;;;;;;;;;6.67;5.00;;;;;6.66;45.07;101228.56;4994648;28;45452;-86
2022/04/02 03:45:12;;;;;;;;;5.33;5.00;;;;;6.79;45.27;101239.81;4994497;28;45436;-86
2022/04/02 03:47:38;;;;;;;;;7.00;3.00;;;;;6.33;45.25;101180.66;4993254;28;47094;-86
2022/04/02 03:50:05;;;;;;;;;4.00;4.00;;;;;6.15;44.87;101153.66;4992871;28;45426;-86
2022/04/02 03:52:30;;;;;;;;;5.00;5.00;;;;;6.43;45.41;101201.66;5009646;28;45513;-86
2022/04/02 03:54:56;;;;;;;;;4.50;4.50;;;;;5.82;45.46;101119.81;4994906;28;45380;-85
2022/04/02 03:57:22;;;;;;;;;4.33;4.00;;;;;6.15;45.36;101158.94;4994117;28;46498;-85
2022/04/02 03:59:48;;;;;;;;;4.00;4.00;;;;;6.72;45.60;101259.38;4994465;28;45220;-85
2022/04/02 04:02:13;;;;;;;;;6.00;4.33;;;;;6.72;45.28;101257.59;4994332;28;46234;-85
2022/04/02 04:04:39;;;;;;;;;5.67;4.33;;;;;6.16;45.35;101168.63;4995375;28;45519;-85
2022/04/02 04:07:06;;;;;;;;;4.00;4.00;;;;;6.70;45.46;101255.88;4997006;28;46322;-85
2022/04/02 04:09:32;;;;;;;;;4.00;4.00;;;;;6.33;45.28;101203.59;4995781;28;45964;-86
2022/04/02 04:11:57;;;;;;;;;9.00;5.00;;;;;6.68;45.63;101255.91;4997429;28;45472;-85
2022/04/02 04:14:24;;;;;;;;;5.00;3.67;;;;;6.10;45.44;101178.44;4997434;28;45321;-85
2022/04/02 04:16:50;;;;;;;;;5.33;5.00;;;;;6.61;45.60;101262.22;5012413;28;47033;-85
2022/04/02 04:19:16;;;;;;;;;4.67;4.67;;;;;6.22;45.65;101187.03;4997034;28;45307;-85
2022/04/02 04:21:43;;;;;;;;;6.00;6.00;;;;;6.63;45.55;101270.13;4995840;28;45405;-85
2022/04/02 04:24:09;;;;;;;;;4.00;3.33;;;;;6.63;45.80;101271.00;5012517;28;45499;-85
2022/04/02 04:26:35;;;;;;;;;5.00;4.00;;;;;5.70;45.62;101118.25;4995625;28;48102;-85
2022/04/02 04:29:01;;;;;;;;;5.67;4.00;;;;;5.83;45.53;101150.69;4997182;28;45401;-85
2022/04/02 04:31:26;;;;;;;;;6.33;6.00;;;;;6.45;45.86;101258.97;4996921;28;45416;-86
2022/04/02 04:33:52;;;;;;;;;4.33;4.33;;;;;6.11;45.66;101214.59;4997545;28;45585;-85
2022/04/02 04:36:19;;;;;;;;;4.00;4.00;;;;;6.28;45.54;101234.59;4996593;28;45898;-86
2022/04/02 04:38:46;;;;;;;;;4.00;4.00;;;;;6.55;45.87;101288.81;4995787;27;45809;-85
2022/04/02 04:41:12;;;;;;;;;4.00;4.00;;;;;6.49;45.59;101287.16;5011884;27;45595;-85
2022/04/02 04:43:41;;;;;;;;;5.33;5.33;;;;;6.02;46.14;101192.72;4997342;27;45171;-85
2022/04/02 04:46:07;;;;;;;;;5.67;4.67;;;;;5.79;46.24;101170.13;4995448;28;48199;-85
2022/04/02 04:48:33;;;;;;;;;5.67;5.00;;;;;5.80;46.05;101179.81;4996692;28;45377;-85
2022/04/02 04:50:58;;;;;;;;;5.00;5.00;;;;;6.13;45.65;101238.38;4997024;28;45375;-85
2022/04/02 04:53:24;;;;;;;;;5.00;4.67;;;;;6.50;46.27;101295.97;4995634;27;45555;-85
2022/04/02 04:55:49;;;;;;;;;6.67;5.33;;;;;5.98;45.99;101223.63;4995428;28;48179;-84
2022/04/02 04:58:14;;;;;;;;;10.00;7.00;;;;;5.86;46.35;101208.81;4996605;28;45404;-85
2022/04/02 05:00:41;;;;;;;;;4.67;4.67;;;;;6.28;46.11;101277.81;5027236;27;45362;-85
2022/04/02 05:03:08;;;;;;;;;4.00;4.00;;;;;5.95;46.02;101228.09;4995848;28;45607;-86
2022/04/02 05:05:34;;;;;;;;;4.00;4.00;;;;;5.86;46.14;101226.47;4996531;28;46491;-86
2022/04/02 05:08:00;;;;;;;;;6.67;5.00;;;;;6.44;46.01;101315.50;4996655;28;45514;-86
2022/04/02 05:10:27;;;;;;;;;5.00;5.00;;;;;6.45;45.86;101319.88;4996240;28;45584;-86
2022/04/02 05:12:52;;;;;;;;;3.33;3.33;;;;;5.38;45.85;101154.94;4997131;28;45227;-86
2022/04/02 05:15:18;;;;;;;;;5.00;5.00;;;;;5.63;45.78;101193.31;4995962;28;45472;-85
2022/04/02 05:17:45;;;;;;;;;6.33;6.33;;;;;5.74;45.75;101216.09;4996303;28;45369;-86
2022/04/02 05:20:13;;;;;;;;;6.00;5.00;;;;;6.05;45.69;101261.44;4995176;28;45334;-86
2022/04/02 05:22:39;;;;;;;;;4.67;4.67;;;;;6.21;45.75;101296.47;4996665;27;45559;-86
2022/04/02 05:25:04;;;;;;;;;6.00;6.00;;;;;6.14;45.69;101285.13;4996258;27;46129;-86
2022/04/02 05:27:30;;;;;;;;;5.67;5.67;;;;;5.62;45.67;101188.03;4994861;27;45903;-86
2022/04/02 05:29:55;;;;;;;;;6.00;5.33;;;;;6.46;45.60;101341.91;4996470;28;45407;-86
2022/04/02 05:32:21;;;;;;;;;5.33;5.33;;;;;5.58;45.66;101196.94;4995537;28;45523;-85
2022/04/02 05:34:46;;;;;;;;;6.67;5.67;;;;;6.03;45.89;101271.19;4996223;28;45728;-85
2022/04/02 05:37:12;;;;;;;;;8.00;7.33;;;;;6.53;46.08;101347.09;4996310;28;45313;-86
2022/04/02 05:39:37;;;;;;;;;5.67;5.67;;;;;6.43;45.88;101326.97;4994690;27;45310;-86
2022/04/02 05:42:05;;;;;;;;;6.67;6.67;;;;;6.39;45.85;101338.53;4996498;28;45551;-86
2022/04/02 05:44:31;;;;;;;;;6.33;5.00;;;;;6.17;45.67;101297.41;4995883;27;45452;-85
2022/04/02 05:46:56;;;;;;;;;5.33;5.00;;;;;5.84;45.27;101241.47;4990806;28;45709;-86
2022/04/02 05:49:21;;;;;;;;;8.33;3.00;;;;;6.00;45.61;101277.41;4990480;27;45511;-86
2022/04/02 05:51:47;;;;;;;;;7.67;5.00;;;;;6.02;45.72;101280.91;4976263;28;45550;-86
2022/04/02 05:54:12;;;;;;;;;7.00;4.67;;;;;5.48;45.63;101186.50;4992697;28;48166;-86
2022/04/02 05:56:38;;;;;;;;;8.67;5.33;;;;;5.90;45.66;101259.91;4996129;28;45329;-89
2022/04/02 05:59:06;;;;;;;;;5.00;5.00;;;;;5.61;45.17;101218.03;4995381;27;45318;-88
2022/04/02 06:01:32;;;;;;;;;5.00;5.00;;;;;5.81;45.53;101244.19;4996480;28;45148;-86
2022/04/02 06:03:58;;;;;;;;;36.50;33.50;;;;;6.45;45.67;101348.13;5005294;28;46425;-85
2022/04/02 06:06:23;;;;;;;;;15.50;15.00;;;;;6.26;45.33;101310.50;5015626;28;45412;-86
2022/04/02 06:08:49;;;;;;;;;8.67;6.67;;;;;5.95;45.67;101270.41;4989629;28;45312;-86
2022/04/02 06:11:14;;;;;;;;;4.00;4.00;;;;;5.45;45.52;101164.53;4976835;28;45388;-85
2022/04/02 06:13:39;;;;;;;;;11.00;8.67;;;;;6.17;45.61;101286.84;4976276;28;46238;-86
2022/04/02 06:16:06;;;;;;;;;5.00;5.00;;;;;6.75;45.12;101382.03;4994470;28;45403;-85
2022/04/02 06:18:31;;;;;;;;;4.00;4.00;;;;;6.00;45.35;101240.34;4994595;28;45471;-85
2022/04/02 06:20:57;;;;;;;;;5.33;5.33;;;;;6.70;45.54;101368.00;4995042;28;45536;-85
2022/04/02 06:23:22;;;;;;;;;6.00;6.00;;;;;6.51;45.24;101335.66;4995838;28;45754;-85
2022/04/02 06:25:49;;;;;;;;;5.33;4.00;;;;;6.21;45.22;101281.47;4995957;28;45340;-85
2022/04/02 06:28:14;;;;;;;;;10.33;10.33;;;;;6.96;45.36;101391.38;4993408;28;45349;-85
2022/04/02 06:30:39;;;;;;;;;4.67;4.00;;;;;6.77;45.16;101360.81;4993635;28;45988;-85
2022/04/02 06:33:05;;;;;;;;;6.00;6.00;;;;;6.51;45.36;101311.84;4996364;28;45991;-86
2022/04/02 06:35:31;;;;;;;;;6.67;6.33;;;;;7.02;45.87;101386.84;5014701;28;45328;-85
2022/04/02 06:37:56;;;;;;;;;5.00;5.00;;;;;6.61;45.33;101309.03;5015850;28;45509;-85
2022/04/02 06:40:25;;;;;;;;;8.33;6.00;;;;;7.16;45.32;101388.34;5015640;28;45486;-85
2022/04/02 06:42:51;;;;;;;;;6.00;5.00;;;;;7.05;45.31;101374.44;5009192;28;46282;-84
2022/04/02 06:45:18;;;;;;;;;5.00;4.00;;;;;6.76;45.29;101337.84;4994307;28;45413;-85
2022/04/02 06:47:43;;;;;;;;;4.33;4.33;;;;;6.90;45.33;101356.16;4995711;28;45306;-85
2022/04/02 06:50:12;;;;;;;;;4.00;4.00;;;;;7.30;45.35;101408.41;4993298;28;45538;-85
2022/04/02 06:52:38;;;;;;;;;3.00;3.00;;;;;7.33;45.49;101419.84;4995105;27;45521;-85
2022/04/02 06:55:04;;;;;;;;;4.00;4.00;;;;;6.40;45.13;101249.38;5005029;28;45450;-86
2022/04/02 06:57:30;;;;;;;;;3.00;3.00;;;;;7.18;45.54;101378.56;4994102;28;45537;-87
2022/04/02 06:59:56;;;;;;;;;6.67;4.67;;;;;7.47;45.11;101421.31;4995639;28;45352;-88
2022/04/02 07:02:21;;;;;;;;;5.00;5.00;;;;;7.12;45.32;101365.44;4995364;28;45434;-85
2022/04/02 07:04:47;;;;;;;;;6.67;5.00;;;;;7.58;45.04;101422.00;4993991;28;45407;-85
2022/04/02 07:07:12;;;;;;;;;4.00;4.00;;;;;7.42;44.67;101389.59;4994001;28;45358;-85
2022/04/02 07:09:38;;;;;;;;;4.00;3.67;;;;;7.70;45.18;101426.16;4995475;28;45576;-85
2022/04/02 07:12:05;;;;;;;;;5.67;4.67;;;;;7.56;44.93;101407.88;4994909;28;46230;-85
2022/04/02 07:14:31;;;;;;;;;3.33;1.33;;;;;7.64;44.78;101392.69;5002225;28;45722;-85
2022/04/02 07:16:56;;;;;;;;;5.33;4.67;;;;;7.70;44.69;101405.84;4988864;28;45424;-85
2022/04/02 07:19:23;;;;;;;;;6.00;6.00;;;;;7.26;45.19;101329.81;5018587;28;45294;-85
2022/04/02 07:21:51;;;;;;;;;5.00;5.00;;;;;8.04;44.27;101439.59;4993331;28;48476;-85
2022/04/02 07:24:17;;;;;;;;;5.00;4.00;;;;;7.57;43.52;101335.38;4994625;27;45320;-85
2022/04/02 07:26:45;;;;;;;;;5.67;4.00;;;;;7.70;43.51;101362.50;4994739;28;45501;-85
2022/04/02 07:29:12;;;;;;;;;6.00;5.00;;;;;7.39;43.75;101289.75;4994005;28;45307;-85
2022/04/02 07:31:37;;;;;;;;;7.00;5.33;;;;;8.36;43.28;101438.88;4994554;28;46360;-85
2022/04/02 07:34:02;;;;;;;;;4.00;4.00;;;;;7.93;43.13;101360.19;4994934;28;45484;-85
2022/04/02 07:36:56;;;;;;;;;5.00;5.00;;;;;8.48;43.08;101444.84;4994817;28;45449;-85
2022/04/02 07:39:46;;;;;;;;;4.33;4.33;;;;;8.57;42.72;101442.84;4995989;28;45409;-85
2022/04/02 07:42:12;;;;;;;;;4.00;4.00;;;;;8.63;42.55;101437.34;4996547;28;46684;-85
2022/04/02 07:45:01;;;;;;;;;5.00;5.00;;;;;8.68;42.60;101450.53;4997064;27;45414;-85
2022/04/02 07:47:31;;;;;;;;;6.33;3.67;;;;;8.53;42.19;101398.66;4998060;27;45602;-85
2022/04/02 07:50:01;;;;;;;;;3.00;3.00;;;;;8.40;42.52;101371.50;4997996;27;45459;-85
2022/04/02 07:52:26;;;;;;;;;7.00;5.00;;;;;8.31;42.40;101352.22;4997590;27;45455;-85
2022/04/02 07:54:57;;;;;;;;;6.33;5.33;;;;;9.00;41.80;101455.03;4997335;27;45182;-85
2022/04/02 07:57:31;;;;;;;;;6.00;5.00;;;;;9.06;41.68;101459.31;5015752;27;45398;-85
2022/04/02 08:00:03;;;;;;;;;5.00;5.00;;;;;9.11;40.95;101452.13;4997644;27;45321;-85
2022/04/02 08:02:37;;;;;;;;;5.00;5.00;;;;;8.85;41.51;101405.81;4997024;28;45407;-85
2022/04/02 08:05:04;;;;;;;;;5.00;5.00;;;;;8.80;41.10;101378.50;4997228;28;45358;-85
2022/04/02 08:07:30;;;;;;;;;4.33;4.33;;;;;9.02;41.29;101409.81;5012915;28;45380;-86
2022/04/02 08:09:57;;;;;;;;;6.67;4.00;;;;;9.11;41.00;101409.56;4995575;28;45546;-85
2022/04/02 08:12:23;;;;;;;;;5.00;5.00;;;;;9.16;40.92;101399.69;4992489;28;46899;-86
2022/04/02 08:14:50;;;;;;;;;4.00;4.00;;;;;9.46;40.19;101429.88;5002166;28;45487;-86
2022/04/02 08:17:16;;;;;;;;;4.00;4.00;;;;;9.29;39.29;101369.16;4999645;28;45559;-86
2022/04/02 08:19:41;;;;;;;;;4.67;4.67;;;;;9.81;38.75;101440.41;4998764;28;45356;-86
2022/04/02 08:22:07;;;;;;;;;3.00;3.00;;;;;10.30;38.13;101462.94;5002133;28;48116;-86
2022/04/02 08:24:32;;;;;;;;;7.00;5.00;;;;;10.19;37.64;101363.81;4997079;28;45519;-86
2022/04/02 08:27:08;;;;;;;;;6.67;5.00;;;;;11.79;36.30;101458.72;4997133;28;46031;-86
2022/04/02 08:29:59;;;;;;;;;4.67;3.00;;;;;13.24;33.88;101450.28;4996790;28;45440;-89
2022/04/02 08:32:24;;;;;;;;;2.67;2.67;;;;;14.81;31.30;101449.25;5006730;28;47186;-87
2022/04/02 08:35:03;;;;;;;;;5.33;2.67;;;;;15.27;30.29;101290.28;5004582;28;45363;-87
2022/04/02 08:37:48;;;;;;;;;2.33;2.00;;;;;17.09;29.02;101338.91;4996755;28;45330;-88
2022/04/02 08:40:50;;;;;;;;;3.00;3.00;;;;;19.42;27.01;101446.06;4996429;27;45565;-88
2022/04/02 08:43:16;;;;;;;;;2.00;2.00;;;;;20.55;25.71;101444.28;4996182;28;45533;-86
2022/04/02 08:46:24;;;;;;;;;3.00;3.00;;;;;21.96;24.96;101437.94;5012239;28;45462;-87
2022/04/02 08:48:58;;;;;;;;;4.00;3.00;;;;;22.64;23.61;101444.13;4995912;28;45435;-86
2022/04/02 08:51:38;;;;;;;;;3.00;3.00;;;;;22.60;23.25;101448.97;4996384;28;45379;-85
2022/04/02 08:54:06;;;;;;;;;4.33;3.00;;;;;23.54;23.05;101447.31;5004524;27;46305;-85
2022/04/02 08:56:37;;;;;;;;;3.00;3.00;;;;;24.20;21.59;101446.91;5011391;28;45484;-86
2022/04/02 08:59:07;;;;;;;;;3.00;2.00;;;;;23.61;21.86;101371.44;5001082;28;45482;-86
2022/04/02 09:01:57;;;;;;;;;5.67;4.00;;;;;23.22;22.00;101444.66;4996594;28;45397;-83
2022/04/02 09:05:01;;;;;;;;;3.00;1.67;;;;;24.16;21.88;101442.78;5005257;28;46175;-89
2022/04/02 09:08:17;;;;;;;;;3.00;3.00;;;;;25.61;20.82;101443.84;5003357;27;45334;-89
2022/04/02 09:10:56;;;;;;;;;7.00;4.00;;;;;24.28;20.68;101405.38;5013125;27;45386;-89
2022/04/02 09:13:33;;;;;;;;;5.00;5.00;;;;;24.02;20.85;101452.19;4994637;27;45397;-90
2022/04/02 09:19:14;;;;;;;;;4.00;4.00;;;;;22.61;21.31;101349.31;4985928;28;45590;-90
2022/04/02 09:21:58;;;;;;;;;3.00;3.00;;;;;22.39;21.88;101459.78;4996120;28;45578;-91
2022/04/02 09:24:45;;;;;;;;;3.00;3.00;;;;;21.96;22.23;101459.66;4995605;27;45595;-89
2022/04/02 09:27:29;;;;;;;;;4.67;3.00;;;;;21.47;22.03;101461.72;5001972;27;48081;-89
2022/04/02 09:30:18;;;;;;;;;3.67;3.00;;;;;21.38;22.90;101463.25;4994964;28;45476;-91
2022/04/02 09:33:08;;;;;;;;;5.00;3.00;;;;;21.40;23.08;101471.28;5012242;27;45472;-89
2022/04/02 09:35:52;;;;;;;;;5.67;4.67;;;;;21.06;22.55;101463.03;5065061;27;45397;-90
2022/04/02 09:38:30;;;;;;;;;7.00;4.33;;;;;20.93;22.87;101473.97;4996619;27;47183;-89
2022/04/02 09:41:10;;;;;;;;;3.00;3.00;;;;;19.84;23.21;101389.91;4993937;28;45486;-91
2022/04/02 09:43:55;;;;;;;;;3.67;3.00;;;;;19.22;23.84;101333.06;4993165;27;45380;-90
2022/04/02 09:46:49;;;;;;;;;2.67;2.67;;;;;19.21;22.74;101342.16;5011560;27;45337;-89
2022/04/02 09:49:58;;;;;;;;;2.00;2.00;;;;;19.89;22.55;101468.06;5001131;28;46464;-87
2022/04/02 09:52:26;;;;;;;;;2.33;2.33;;;;;19.95;22.30;101454.94;5000783;28;45410;-86
2022/04/02 09:55:12;;;;;;;;;2.00;2.00;;;;;19.96;22.67;101417.94;4993944;28;45416;-85
2022/04/02 09:58:06;;;;;;;;;2.00;2.00;;;;;20.27;21.86;101427.38;4994945;28;45408;-84
2022/04/02 10:00:41;;;;;;;;;3.33;2.67;;;;;20.58;21.65;101392.59;5009146;28;47186;-84
2022/04/02 10:03:30;;;;;;;;;4.00;3.00;;;;;21.05;20.97;101398.97;4997358;28;45430;-84
2022/04/02 10:06:18;;;;;;;;;2.00;2.00;;;;;21.96;21.03;101454.22;5007193;28;45443;-84
2022/04/02 10:09:07;;;;;;;;;3.67;2.00;;;;;22.40;20.58;101464.22;5011757;28;45459;-84
2022/04/02 10:11:34;;;;;;;;;3.00;3.00;;;;;22.74;19.48;101465.00;4994595;28;45953;-86
2022/04/02 10:14:02;;;;;;;;;5.00;2.00;;;;;23.03;19.41;101460.84;4995556;28;45419;-83
2022/04/02 10:16:30;;;;;;;;;3.67;3.67;;;;;23.26;19.08;101470.63;4997684;28;45518;-83
2022/04/02 10:18:58;;;;;;;;;2.00;2.00;;;;;23.64;19.06;101463.69;4993756;27;45400;-83
2022/04/02 10:21:23;;;;;;;;;2.00;2.00;;;;;23.88;17.64;101463.44;4993826;28;45471;-83
2022/04/02 10:23:54;;;;;;;;;2.00;2.00;;;;;24.00;17.63;101396.97;4997663;27;45460;-84
2022/04/02 10:26:23;;;;;;;;;2.00;2.00;;;;;24.78;17.78;101470.75;4987587;28;45402;-84
2022/04/02 10:28:53;;;;;;;;;2.00;2.00;;;;;25.11;16.72;101452.22;4993664;28;45543;-84
2022/04/02 10:31:48;;;;;;;;;2.67;2.67;;;;;25.06;16.97;101430.84;4997589;27;45526;-84
2022/04/02 10:34:25;;;;;;;;;2.33;2.33;;;;;25.03;16.94;101425.69;4993429;27;45446;-84
2022/04/02 10:37:00;;;;;;;;;3.00;1.00;;;;;24.49;16.55;101396.25;4992736;27;45396;-85
2022/04/02 10:39:26;;;;;;;;;2.67;2.33;;;;;22.86;17.56;101426.91;4988936;28;45417;-84
2022/04/02 10:42:03;;;;;;;;;2.00;2.00;;;;;22.51;18.74;101457.91;5004345;27;48484;-83
2022/04/02 10:44:50;;;;;;;;;3.33;3.00;;;;;21.18;19.25;101451.22;5004144;28;45421;-84
2022/04/02 10:47:24;;;;;;;;;3.00;3.00;;;;;20.06;19.43;101420.81;4980612;28;45250;-86
2022/04/02 10:50:04;;;;;;;;;2.33;2.33;;;;;19.86;19.42;101471.84;5012206;28;45397;-85
2022/04/02 10:52:31;;;;;;;;;1.33;1.33;;;;;19.63;20.49;101472.56;4996955;27;48533;-84
2022/04/02 10:54:57;;;;;;;;;2.00;2.00;;;;;19.16;20.05;101440.63;5002223;28;45384;-85
2022/04/02 10:57:22;;;;;;;;;2.00;2.00;;;;;18.60;20.49;101364.28;4999482;28;45705;-85
2022/04/02 10:59:48;;;;;;;;;2.00;2.00;;;;;18.85;21.62;101432.88;4994218;27;45576;-84
2022/04/02 11:02:23;;;;;;;;;5.67;3.67;;;;;19.11;21.37;101464.41;4994415;28;45695;-84
2022/04/02 11:05:03;;;;;;;;;2.67;1.00;;;;;19.13;21.08;101467.88;4999406;27;45421;-84
2022/04/02 11:07:34;;;;;;;;;3.00;3.00;;;;;18.88;20.85;101419.16;4988109;28;45444;-87
2022/04/02 11:10:03;;;;;;;;;1.00;1.00;;;;;18.94;20.81;101429.53;4994414;27;45475;-86
2022/04/02 11:12:33;;;;;;;;;4.00;4.00;;;;;18.66;21.42;101444.88;4992694;27;47347;-88
2022/04/02 11:15:16;;;;;;;;;4.00;2.00;;;;;18.09;21.18;101401.84;5009439;27;46147;-85
2022/04/02 11:17:44;;;;;;;;;2.00;2.00;;;;;17.68;21.63;101390.03;4995324;28;45955;-92
2022/04/02 11:20:28;;;;;;;;;2.67;2.67;;;;;17.87;21.41;101359.22;4993145;27;45545;-87
2022/04/02 11:22:57;;;;;;;;;2.33;1.33;;;;;19.47;19.80;101462.81;4993399;28;47315;-91
2022/04/02 11:25:39;;;;;;;;;4.00;4.00;;;;;20.65;19.15;101451.66;4993361;27;45634;-89
2022/04/02 11:28:05;;;;;;;;;7.00;3.33;;;;;21.26;17.89;101454.22;5009745;27;45510;-90
2022/04/02 11:31:05;;;;;;;;;3.33;2.00;;;;;21.25;19.37;101430.78;4993934;28;45319;-90
2022/04/02 11:33:46;;;;;;;;;2.00;2.00;;;;;21.40;18.20;101438.75;4995960;27;45456;-88
2022/04/02 11:36:15;;;;;;;;;4.67;4.33;;;;;20.91;18.59;101339.53;4994707;28;45381;-87
2022/04/02 11:38:53;;;;;;;;;3.00;3.00;;;;;21.44;18.64;101407.69;4998829;28;45397;-88
2022/04/02 11:41:21;;;;;;;;;2.00;2.00;;;;;21.33;18.65;101453.75;4992892;28;45594;-87
2022/04/02 11:43:51;;;;;;;;;5.67;3.00;;;;;20.97;18.13;101469.16;4985318;28;47372;-86
2022/04/02 11:46:18;;;;;;;;;1.67;1.67;;;;;20.66;18.52;101466.91;4994242;28;45484;-87
2022/04/02 11:48:50;;;;;;;;;1.00;1.00;;;;;20.65;18.68;101453.50;4994455;28;45485;-85